createdAt,value
2022-08-28T00:00:36.390Z,21.40
2022-08-28T00:03:03.974Z,18.83
2022-08-28T00:05:33.834Z,22.60
2022-08-28T00:08:00.614Z,19.60
2022-08-28T00:10:28.459Z,17.63
2022-08-28T00:12:56.505Z,21.27
2022-08-28T00:15:29.162Z,18.15
2022-08-28T00:17:55.985Z,22.95
2022-08-28T00:20:23.283Z,19.53
2022-08-28T00:22:50.306Z,20.65
2022-08-28T00:25:17.900Z,20.23
2022-08-28T00:27:53.217Z,19.98
2022-08-28T00:30:26.327Z,20.55
2022-08-28T00:32:55.389Z,19.00
2022-08-28T00:35:23.705Z,21.00
2022-08-28T00:37:52.459Z,20.83
2022-08-28T00:40:28.490Z,21.45
2022-08-28T00:42:56.021Z,22.75
2022-08-28T00:45:23.926Z,21.70
2022-08-28T00:47:51.212Z,20.33
2022-08-28T00:50:22.173Z,19.33
2022-08-28T00:52:53.018Z,18.98
2022-08-28T00:55:25.466Z,20.13
2022-08-28T00:57:58.266Z,20.93
2022-08-28T01:00:30.686Z,22.48
2022-08-28T01:02:58.272Z,25.02
2022-08-28T01:05:26.035Z,21.17
2022-08-28T01:07:52.837Z,21.67
2022-08-28T01:10:23.043Z,24.37
2022-08-28T01:12:50.137Z,26.52
2022-08-28T01:15:20.701Z,27.02
2022-08-28T01:17:49.611Z,23.80
2022-08-28T01:20:21.139Z,26.50
2022-08-28T01:23:06.518Z,28.67
2022-08-28T01:25:34.607Z,26.60
2022-08-28T01:28:01.982Z,29.33
2022-08-28T01:30:31.841Z,26.38
2022-08-28T01:32:58.593Z,28.65
2022-08-28T01:35:33.126Z,27.90
2022-08-28T01:38:00.302Z,30.88
2022-08-28T01:40:30.562Z,27.27
2022-08-28T01:43:06.952Z,30.15
2022-08-28T01:45:33.780Z,29.20
2022-08-28T01:48:00.266Z,25.93
2022-08-28T01:50:27.010Z,31.15
2022-08-28T01:52:53.499Z,29.27
2022-08-28T01:55:21.601Z,32.60
2022-08-28T01:57:50.752Z,30.20
2022-08-28T02:00:18.258Z,30.33
2022-08-28T02:02:44.749Z,31.58
2022-08-28T02:05:11.803Z,29.63
2022-08-28T02:07:38.508Z,29.40
2022-08-28T02:10:07.426Z,28.13
2022-08-28T02:12:34.013Z,26.60
2022-08-28T02:15:00.776Z,23.75
2022-08-28T02:17:27.312Z,25.58
2022-08-28T02:19:53.795Z,26.33
2022-08-28T02:22:20.269Z,26.55
2022-08-28T02:24:46.778Z,28.73
2022-08-28T02:27:13.464Z,26.30
2022-08-28T02:29:40.044Z,28.48
2022-08-28T02:32:06.612Z,27.15
2022-08-28T02:34:34.576Z,22.23
2022-08-28T02:37:01.045Z,26.50
2022-08-28T02:39:27.549Z,24.38
2022-08-28T02:41:54.103Z,26.33
2022-08-28T02:44:20.586Z,25.95
2022-08-28T02:46:47.078Z,28.95
2022-08-28T02:49:13.590Z,27.23
2022-08-28T02:51:40.074Z,24.45
2022-08-28T02:54:06.563Z,28.63
2022-08-28T02:56:33.348Z,21.67
2022-08-28T02:58:59.828Z,25.05
2022-08-28T03:01:26.436Z,23.10
2022-08-28T03:03:53.118Z,23.20
2022-08-28T03:06:19.899Z,24.10
2022-08-28T03:08:46.444Z,23.75
2022-08-28T03:11:13.024Z,21.08
2022-08-28T03:13:39.621Z,25.83
2022-08-28T03:16:06.614Z,24.52
2022-08-28T03:18:33.305Z,23.25
2022-08-28T03:21:00.201Z,22.90
2022-08-28T03:23:26.734Z,24.75
2022-08-28T03:26:00.517Z,24.17
2022-08-28T03:28:29.615Z,22.02
2022-08-28T03:30:57.926Z,25.50
2022-08-28T03:33:25.169Z,25.63
2022-08-28T03:35:52.066Z,22.10
2022-08-28T03:38:20.730Z,20.30
2022-08-28T03:40:47.553Z,18.98
2022-08-28T03:43:17.930Z,19.63
2022-08-28T03:45:53.769Z,21.48
2022-08-28T03:48:20.630Z,23.75
2022-08-28T03:50:47.768Z,20.97
2022-08-28T03:53:15.893Z,24.50
2022-08-28T03:55:43.287Z,24.42
2022-08-28T03:58:09.772Z,23.33
2022-08-28T04:00:46.406Z,21.90
2022-08-28T04:03:13.479Z,21.20
2022-08-28T04:05:41.094Z,20.20
2022-08-28T04:08:08.172Z,20.35
2022-08-28T04:10:36.647Z,20.20
2022-08-28T04:13:04.910Z,24.70
2022-08-28T04:15:31.452Z,22.80
2022-08-28T04:17:58.216Z,22.73
2022-08-28T04:20:24.767Z,24.23
2022-08-28T04:22:53.004Z,19.92
2022-08-28T04:25:22.047Z,20.17
2022-08-28T04:27:49.206Z,19.63
2022-08-28T04:30:15.937Z,23.45
2022-08-28T04:32:42.446Z,17.75
2022-08-28T04:35:10.755Z,20.00
2022-08-28T04:37:37.588Z,17.33
2022-08-28T04:40:06.172Z,24.37
2022-08-28T04:42:32.654Z,20.35
2022-08-28T04:44:59.709Z,19.75
2022-08-28T04:47:27.383Z,21.63
2022-08-28T04:49:54.609Z,20.10
2022-08-28T04:52:22.844Z,18.77
2022-08-28T04:54:50.006Z,19.02
2022-08-28T04:57:16.539Z,21.38
2022-08-28T04:59:45.070Z,19.40
2022-08-28T05:02:11.845Z,20.95
2022-08-28T05:04:38.385Z,19.90
2022-08-28T05:07:06.205Z,20.55
2022-08-28T05:09:34.825Z,22.95
2022-08-28T05:12:03.305Z,19.88
2022-08-28T05:14:30.524Z,22.33
2022-08-28T05:16:57.725Z,20.93
2022-08-28T05:19:26.043Z,20.20
2022-08-28T05:21:53.767Z,19.40
2022-08-28T05:24:21.283Z,18.90
2022-08-28T05:26:48.078Z,18.70
2022-08-28T05:29:16.693Z,18.63
2022-08-28T05:31:43.423Z,19.92
2022-08-28T05:34:10.575Z,18.50
2022-08-28T05:36:38.605Z,16.90
2022-08-28T05:39:08.365Z,19.67
2022-08-28T05:41:35.023Z,19.17
2022-08-28T05:44:05.436Z,16.90
2022-08-28T05:46:32.559Z,16.55
2022-08-28T05:49:00.368Z,19.27
2022-08-28T05:51:27.705Z,14.80
2022-08-28T05:53:57.937Z,16.23
2022-08-28T05:56:30.140Z,15.70
2022-08-28T05:58:57.639Z,16.48
2022-08-28T06:01:29.522Z,17.13
2022-08-28T06:04:04.162Z,15.27
2022-08-28T06:06:34.346Z,22.53
2022-08-28T06:09:04.430Z,15.60
2022-08-28T06:11:31.321Z,15.65
2022-08-28T06:14:02.747Z,15.27
2022-08-28T06:16:31.421Z,18.30
2022-08-28T06:19:01.692Z,15.90
2022-08-28T06:21:28.955Z,16.75
2022-08-28T06:23:56.131Z,18.13
2022-08-28T06:26:23.094Z,17.92
2022-08-28T06:28:49.578Z,19.30
2022-08-28T06:31:25.078Z,16.90
2022-08-28T06:33:57.471Z,16.50
2022-08-28T06:36:28.908Z,15.88
2022-08-28T06:38:58.436Z,14.23
2022-08-28T06:41:25.810Z,16.30
2022-08-28T06:43:52.348Z,17.00
2022-08-28T06:46:18.866Z,22.35
2022-08-28T06:48:45.347Z,17.20
2022-08-28T06:51:12.784Z,14.40
2022-08-28T06:53:40.913Z,16.48
2022-08-28T06:56:08.916Z,16.57
2022-08-28T06:58:39.599Z,17.98
2022-08-28T07:01:17.460Z,14.43
2022-08-28T07:03:45.127Z,14.35
2022-08-28T07:06:13.525Z,20.25
2022-08-28T07:08:41.191Z,17.30
2022-08-28T07:11:20.386Z,14.25
2022-08-28T07:13:47.079Z,13.75
2022-08-28T07:16:17.346Z,16.88
2022-08-28T07:18:45.010Z,16.80
2022-08-28T07:21:12.570Z,16.43
2022-08-28T07:23:40.151Z,16.63
2022-08-28T07:26:09.759Z,14.93
2022-08-28T07:28:36.914Z,19.13
2022-08-28T07:31:13.323Z,14.05
2022-08-28T07:33:40.783Z,15.73
2022-08-28T07:36:09.347Z,14.52
2022-08-28T07:38:43.292Z,13.20
2022-08-28T07:41:15.159Z,17.70
2022-08-28T07:44:00.930Z,14.93
2022-08-28T07:46:27.601Z,12.37
2022-08-28T07:48:54.057Z,16.73
2022-08-28T07:51:20.796Z,13.68
2022-08-28T07:53:47.429Z,17.33
2022-08-28T07:56:13.895Z,16.02
2022-08-28T07:58:40.475Z,13.10
2022-08-28T08:01:07.376Z,15.25
2022-08-28T08:03:34.654Z,16.00
2022-08-28T08:06:03.391Z,14.85
2022-08-28T08:08:31.734Z,16.27
2022-08-28T08:11:10.667Z,18.13
2022-08-28T08:13:40.739Z,15.77
2022-08-28T08:16:17.431Z,13.45
2022-08-28T08:18:44.462Z,14.95
2022-08-28T08:21:13.717Z,15.40
2022-08-28T08:23:41.623Z,14.57
2022-08-28T08:26:11.361Z,14.43
2022-08-28T08:28:38.614Z,18.33
2022-08-28T08:31:14.974Z,14.60
2022-08-28T08:33:44.693Z,15.88
2022-08-28T08:36:13.362Z,18.57
2022-08-28T08:38:39.881Z,13.27
2022-08-28T08:41:14.648Z,14.85
2022-08-28T08:44:00.888Z,16.10
2022-08-28T08:46:38.334Z,15.80
2022-08-28T08:49:12.414Z,16.13
2022-08-28T08:51:47.560Z,17.75
2022-08-28T08:54:20.240Z,13.73
2022-08-28T08:56:47.411Z,16.25
2022-08-28T08:59:17.288Z,12.55
2022-08-28T09:01:56.903Z,14.47
2022-08-28T09:04:34.394Z,16.17
2022-08-28T09:07:23.329Z,16.33
2022-08-28T09:09:57.521Z,16.52
2022-08-28T09:12:29.473Z,13.77
2022-08-28T09:15:10.563Z,15.50
2022-08-28T09:17:48.019Z,17.58
2022-08-28T09:20:20.133Z,12.82
2022-08-28T09:22:52.456Z,16.23
2022-08-28T09:25:52.323Z,15.82
2022-08-28T09:28:28.773Z,16.20
2022-08-28T09:31:00.286Z,15.90
2022-08-28T09:33:30.931Z,17.20
2022-08-28T09:35:57.852Z,17.05
2022-08-28T09:38:28.105Z,16.08
2022-08-28T09:41:27.423Z,18.13
2022-08-28T09:43:54.097Z,13.80
2022-08-28T09:46:24.522Z,15.60
2022-08-28T09:48:54.361Z,16.13
2022-08-28T09:51:20.731Z,17.30
2022-08-28T09:53:56.494Z,19.27
2022-08-28T09:56:28.683Z,16.08
2022-08-28T09:59:02.554Z,12.68
2022-08-28T10:01:44.537Z,11.90
2022-08-28T10:04:28.921Z,11.43
2022-08-28T10:07:09.806Z,16.03
2022-08-28T10:09:40.220Z,14.57
2022-08-28T10:12:35.157Z,14.32
2022-08-28T10:15:19.323Z,15.63
2022-08-28T10:17:54.923Z,14.70
2022-08-28T10:20:46.606Z,15.03
2022-08-28T10:23:52.283Z,17.77
2022-08-28T10:26:30.269Z,13.65
2022-08-28T10:29:27.366Z,12.68
2022-08-28T10:32:30.089Z,16.17
2022-08-28T10:34:59.486Z,14.77
2022-08-28T10:37:45.039Z,13.95
2022-08-28T10:40:16.824Z,17.45
2022-08-28T10:43:20.156Z,14.70
2022-08-28T10:45:48.261Z,17.83
2022-08-28T10:48:30.290Z,17.40
2022-08-28T10:51:00.929Z,15.38
2022-08-28T10:53:43.969Z,13.35
2022-08-28T10:56:16.152Z,11.63
2022-08-28T10:58:43.127Z,17.25
2022-08-28T11:01:14.555Z,15.67
2022-08-28T11:03:46.549Z,15.68
2022-08-28T11:06:20.572Z,16.63
2022-08-28T11:08:51.957Z,14.25
2022-08-28T11:11:42.611Z,13.68
2022-08-28T11:14:25.206Z,16.57
2022-08-28T11:16:53.018Z,17.52
2022-08-28T11:19:32.262Z,12.73
2022-08-28T11:22:12.896Z,22.52
2022-08-28T11:24:42.974Z,20.33
2022-08-28T11:27:31.180Z,16.10
2022-08-28T11:30:09.911Z,15.55
2022-08-28T11:32:51.725Z,21.33
2022-08-28T11:35:21.133Z,18.38
2022-08-28T11:37:49.979Z,22.17
2022-08-28T11:40:21.043Z,18.63
2022-08-28T11:42:50.411Z,18.52
2022-08-28T11:45:45.695Z,17.02
2022-08-28T11:48:25.668Z,18.60
2022-08-28T11:51:02.221Z,18.77
2022-08-28T11:53:50.038Z,18.33
2022-08-28T11:56:30.941Z,17.00
2022-08-28T11:59:26.087Z,18.08
2022-08-28T12:02:39.503Z,18.27
2022-08-28T12:05:18.124Z,16.20
2022-08-28T12:07:49.836Z,15.67
2022-08-28T12:10:22.343Z,15.38
2022-08-28T12:12:52.602Z,15.52
2022-08-28T12:15:28.011Z,19.42
2022-08-28T12:18:00.141Z,16.60
2022-08-28T12:20:53.894Z,17.90
2022-08-28T12:23:23.220Z,17.48
2022-08-28T12:25:51.671Z,18.65
2022-08-28T12:28:26.603Z,16.73
2022-08-28T12:31:05.281Z,15.30
2022-08-28T12:33:33.812Z,19.70
2022-08-28T12:36:04.841Z,20.48
2022-08-28T12:38:33.029Z,21.40
2022-08-28T12:40:59.788Z,27.20
2022-08-28T12:43:28.757Z,25.17
2022-08-28T12:46:19.137Z,22.73
2022-08-28T12:48:59.420Z,26.77
2022-08-28T12:51:34.340Z,21.02
2022-08-28T12:54:04.678Z,23.45
2022-08-28T12:56:38.351Z,23.20
2022-08-28T12:59:33.113Z,20.37
2022-08-28T13:02:18.438Z,22.02
2022-08-28T13:05:01.024Z,23.10
2022-08-28T13:07:35.085Z,27.80
2022-08-28T13:10:19.959Z,22.52
2022-08-28T13:13:05.406Z,21.57
2022-08-28T13:15:58.075Z,23.40
2022-08-28T13:18:35.605Z,22.95
2022-08-28T13:21:33.926Z,17.88
2022-08-28T13:24:21.667Z,21.17
2022-08-28T13:27:07.100Z,19.87
2022-08-28T13:29:34.482Z,21.05
2022-08-28T13:32:15.694Z,21.35
2022-08-28T13:35:13.765Z,19.40
2022-08-28T13:37:47.927Z,19.10
2022-08-28T13:40:38.448Z,20.87
2022-08-28T13:43:08.167Z,14.95
2022-08-28T13:45:42.918Z,11.15
2022-08-28T13:48:12.561Z,11.13
2022-08-28T13:50:40.386Z,11.65
2022-08-28T13:53:07.071Z,10.60
2022-08-28T13:55:33.762Z,11.48
2022-08-28T13:58:00.320Z,13.40
2022-08-28T14:00:28.169Z,13.45
2022-08-28T14:03:13.400Z,10.40
2022-08-28T14:05:40.171Z,9.90
2022-08-28T14:08:06.715Z,10.32
2022-08-28T14:10:33.247Z,11.75
2022-08-28T14:13:00.484Z,9.88
2022-08-28T14:15:27.127Z,11.10
2022-08-28T14:17:53.632Z,11.00
2022-08-28T14:20:20.208Z,10.48
2022-08-28T14:22:46.700Z,9.30
2022-08-28T14:25:13.561Z,12.23
2022-08-28T14:27:40.143Z,11.02
2022-08-28T14:30:08.122Z,12.33
2022-08-28T14:32:35.422Z,9.57
2022-08-28T14:35:02.298Z,12.05
2022-08-28T14:37:29.088Z,8.90
2022-08-28T14:39:55.734Z,12.68
2022-08-28T14:42:23.082Z,11.40
2022-08-28T14:44:49.564Z,11.02
2022-08-28T14:47:16.182Z,10.77
2022-08-28T14:49:42.837Z,10.63
2022-08-28T14:52:09.467Z,9.02
2022-08-28T14:54:36.062Z,10.50
2022-08-28T14:57:03.148Z,9.70
2022-08-28T14:59:31.026Z,17.42
2022-08-28T15:01:59.578Z,10.85
2022-08-28T15:04:28.919Z,9.52
2022-08-28T15:06:58.263Z,7.57
2022-08-28T15:09:25.292Z,11.27
2022-08-28T15:11:53.722Z,7.88
2022-08-28T15:14:20.291Z,9.23
2022-08-28T15:16:47.990Z,8.88
2022-08-28T15:19:17.779Z,7.77
2022-08-28T15:21:49.735Z,9.50
2022-08-28T15:24:18.753Z,9.63
2022-08-28T15:26:45.402Z,8.82
2022-08-28T15:29:12.335Z,11.27
2022-08-28T15:31:42.997Z,8.87
2022-08-28T15:34:16.490Z,9.10
2022-08-28T15:36:44.204Z,6.45
2022-08-28T15:39:30.550Z,7.00
2022-08-28T15:41:57.494Z,7.43
2022-08-28T15:44:24.168Z,6.40
2022-08-28T15:46:56.855Z,5.55
2022-08-28T15:49:24.321Z,6.75
2022-08-28T15:51:51.208Z,5.85
2022-08-28T15:54:17.908Z,7.32
2022-08-28T15:56:44.908Z,5.70
2022-08-28T15:59:12.367Z,6.57
2022-08-28T16:01:39.140Z,6.38
2022-08-28T16:04:06.934Z,9.23
2022-08-28T16:06:34.318Z,8.27
2022-08-28T16:09:00.944Z,6.17
2022-08-28T16:11:28.009Z,5.63
2022-08-28T16:13:59.293Z,5.75
2022-08-28T16:16:26.070Z,8.05
2022-08-28T16:18:55.208Z,8.68
2022-08-28T16:21:22.507Z,7.00
2022-08-28T16:23:53.466Z,7.10
2022-08-28T16:26:20.620Z,7.05
2022-08-28T16:28:47.501Z,5.93
2022-08-28T16:31:20.469Z,6.55
2022-08-28T16:34:02.472Z,5.77
2022-08-28T16:36:29.592Z,12.80
2022-08-28T16:39:00.414Z,6.50
2022-08-28T16:41:31.838Z,5.88
2022-08-28T16:43:58.898Z,7.55
2022-08-28T16:46:26.585Z,8.27
2022-08-28T16:48:53.897Z,8.43
2022-08-28T16:51:20.706Z,7.50
2022-08-28T16:53:47.334Z,7.90
2022-08-28T16:56:15.626Z,9.05
2022-08-28T16:58:43.251Z,8.63
2022-08-28T17:01:12.306Z,6.90
2022-08-28T17:03:39.998Z,7.38
2022-08-28T17:06:18.202Z,8.77
2022-08-28T17:08:45.253Z,6.32
2022-08-28T17:11:12.859Z,8.40
2022-08-28T17:13:39.617Z,7.05
2022-08-28T17:16:06.555Z,9.27
2022-08-28T17:18:33.179Z,9.18
2022-08-28T17:21:18.348Z,9.73
2022-08-28T17:23:46.483Z,10.63
2022-08-28T17:26:15.451Z,8.77
2022-08-28T17:28:43.100Z,7.35
2022-08-28T17:31:09.652Z,8.77
2022-08-28T17:33:37.818Z,8.57
2022-08-28T17:36:17.071Z,9.30
2022-08-28T17:38:54.854Z,7.22
2022-08-28T17:41:21.379Z,10.00
2022-08-28T17:43:47.902Z,7.80
2022-08-28T17:46:14.466Z,8.98
2022-08-28T17:48:41.542Z,9.03
2022-08-28T17:51:18.510Z,9.13
2022-08-28T17:53:49.896Z,8.65
2022-08-28T17:56:17.854Z,9.20
2022-08-28T17:58:44.489Z,9.73
2022-08-28T18:01:11.116Z,10.17
2022-08-28T18:03:45.661Z,8.00
2022-08-28T18:06:19.859Z,9.98
2022-08-28T18:08:47.727Z,8.23
2022-08-28T18:11:15.414Z,8.13
2022-08-28T18:13:42.539Z,8.40
2022-08-28T18:16:09.127Z,9.43
2022-08-28T18:18:36.521Z,10.10
2022-08-28T18:21:03.352Z,9.77
2022-08-28T18:23:30.069Z,8.77
2022-08-28T18:25:56.550Z,10.93
2022-08-28T18:28:24.941Z,7.10
2022-08-28T18:30:52.119Z,7.95
2022-08-28T18:33:22.227Z,10.43
2022-08-28T18:35:49.769Z,9.10
2022-08-28T18:38:17.353Z,8.97
2022-08-28T18:40:45.027Z,8.88
2022-08-28T18:43:12.506Z,9.75
2022-08-28T18:45:39.082Z,8.15
2022-08-28T18:48:07.894Z,9.63
2022-08-28T18:50:35.554Z,9.67
2022-08-28T18:53:02.487Z,8.20
2022-08-28T18:55:31.105Z,9.38
2022-08-28T18:58:00.249Z,11.23
2022-08-28T19:00:26.956Z,9.90
2022-08-28T19:02:53.824Z,9.47
2022-08-28T19:05:21.173Z,10.65
2022-08-28T19:07:48.001Z,8.20
2022-08-28T19:10:32.699Z,10.43
2022-08-28T19:13:01.078Z,8.48
2022-08-28T19:15:28.402Z,10.57
2022-08-28T19:17:55.178Z,8.55
2022-08-28T19:20:21.873Z,10.10
2022-08-28T19:22:48.905Z,10.23
2022-08-28T19:25:28.679Z,7.10
2022-08-28T19:28:01.483Z,10.13
2022-08-28T19:30:31.313Z,8.70
2022-08-28T19:32:57.800Z,8.07
2022-08-28T19:35:25.213Z,9.38
2022-08-28T19:37:52.962Z,7.88
2022-08-28T19:40:20.618Z,9.37
2022-08-28T19:42:47.454Z,7.70
2022-08-28T19:45:15.137Z,8.70
2022-08-28T19:47:41.750Z,9.52
2022-08-28T19:50:10.253Z,9.25
2022-08-28T19:52:37.955Z,7.17
2022-08-28T19:55:05.998Z,9.13
2022-08-28T19:57:33.268Z,8.05
2022-08-28T20:00:00.135Z,11.82
2022-08-28T20:02:28.552Z,11.07
2022-08-28T20:07:46.018Z,9.32
2022-08-28T20:10:12.953Z,12.02
2022-08-28T20:12:39.533Z,10.50
2022-08-28T20:15:16.020Z,9.48
2022-08-28T20:17:43.921Z,9.97
2022-08-28T20:20:19.773Z,10.38
2022-08-28T20:22:46.383Z,9.20
2022-08-28T20:25:13.360Z,8.45
2022-08-28T20:27:41.431Z,11.02
2022-08-28T20:30:11.136Z,10.10
2022-08-28T20:32:40.141Z,9.98
2022-08-28T20:35:09.526Z,10.73
2022-08-28T20:37:42.628Z,8.98
2022-08-28T20:40:14.011Z,8.75
2022-08-28T20:42:40.548Z,11.00
2022-08-28T20:45:08.920Z,10.07
2022-08-28T20:47:35.575Z,10.13
2022-08-28T20:50:02.031Z,10.13
2022-08-28T20:52:28.913Z,8.85
2022-08-28T20:54:55.457Z,8.90
2022-08-28T20:57:22.834Z,9.70
2022-08-28T20:59:49.959Z,8.93
2022-08-28T21:02:20.460Z,8.98
2022-08-28T21:04:47.820Z,11.73
2022-08-28T21:07:17.164Z,9.77
2022-08-28T21:10:05.679Z,12.38
2022-08-28T21:12:30.871Z,13.18
2022-08-28T21:14:57.690Z,11.50
2022-08-28T21:17:30.227Z,9.38
2022-08-28T21:20:10.471Z,12.07
2022-08-28T21:22:39.235Z,11.00
2022-08-28T21:25:07.290Z,10.32
2022-08-28T21:27:33.835Z,12.15
2022-08-28T21:30:01.031Z,13.57
2022-08-28T21:32:28.764Z,10.80
2022-08-28T21:34:55.400Z,10.50
2022-08-28T21:37:22.415Z,11.50
2022-08-28T21:39:50.746Z,10.88
2022-08-28T21:42:17.364Z,11.30
2022-08-28T21:44:51.419Z,11.90
2022-08-28T21:47:19.673Z,10.43
2022-08-28T21:49:49.371Z,9.02
2022-08-28T21:52:18.329Z,12.05
2022-08-28T21:54:44.871Z,11.35
2022-08-28T21:57:11.366Z,9.70
2022-08-28T21:59:38.264Z,10.10
2022-08-28T22:02:05.078Z,9.60
2022-08-28T22:04:31.601Z,9.82
2022-08-28T22:06:58.485Z,9.73
2022-08-28T22:09:24.991Z,10.13
2022-08-28T22:11:51.454Z,13.10
2022-08-28T22:14:18.399Z,10.88
2022-08-28T22:16:45.129Z,9.82
2022-08-28T22:19:11.634Z,8.65
2022-08-28T22:21:57.006Z,11.10
2022-08-28T22:24:28.397Z,11.52
2022-08-28T22:26:58.921Z,11.85
2022-08-28T22:29:36.795Z,10.07
2022-08-28T22:32:07.833Z,8.68
2022-08-28T22:34:42.346Z,9.63
2022-08-28T22:37:11.226Z,10.77
2022-08-28T22:39:41.695Z,12.50
2022-08-28T22:42:09.830Z,8.07
2022-08-28T22:44:37.263Z,10.43
2022-08-28T22:47:03.909Z,9.57
2022-08-28T22:49:30.374Z,9.13
2022-08-28T22:51:57.195Z,8.57
2022-08-28T22:54:23.665Z,9.27
2022-08-28T22:56:50.116Z,8.20
2022-08-28T22:59:16.714Z,7.47
2022-08-28T23:01:43.228Z,9.93
2022-08-28T23:04:10.781Z,10.38
2022-08-28T23:06:41.199Z,9.00
2022-08-28T23:09:08.155Z,8.23
2022-08-28T23:11:35.675Z,11.47
2022-08-28T23:14:02.952Z,9.75
2022-08-28T23:16:29.480Z,10.45
2022-08-28T23:19:13.277Z,11.75
2022-08-28T23:21:44.258Z,10.43
2022-08-28T23:24:16.122Z,8.80
2022-08-28T23:26:43.846Z,8.50
2022-08-28T23:29:10.895Z,10.02
2022-08-28T23:31:38.139Z,10.55
2022-08-28T23:34:05.301Z,9.15
2022-08-28T23:36:35.293Z,8.10
2022-08-28T23:39:02.705Z,10.90
2022-08-28T23:41:29.261Z,10.25
2022-08-28T23:43:57.111Z,10.23
2022-08-28T23:46:23.576Z,8.18
2022-08-28T23:48:50.128Z,8.90
2022-08-28T23:51:17.211Z,9.27
2022-08-28T23:53:43.989Z,12.40
2022-08-28T23:56:11.503Z,9.98
2022-08-28T23:58:39.538Z,9.63
